sensor_id;sensor_type;location;lat;lon;timestamp;temperature;humidity
27940;DHT22;15275;51.716;14.324;2023-05-10T00:00:27;14.20;64.80
27940;DHT22;15275;51.716;14.324;2023-05-10T00:02:53;14.20;64.80
27940;DHT22;15275;51.716;14.324;2023-05-10T00:05:19;14.10;64.80
27940;DHT22;15275;51.716;14.324;2023-05-10T00:07:45;14.10;65.00
27940;DHT22;15275;51.716;14.324;2023-05-10T00:10:11;14.00;65.20
27940;DHT22;15275;51.716;14.324;2023-05-10T00:12:37;14.00;65.10
27940;DHT22;15275;51.716;14.324;2023-05-10T00:15:03;13.90;65.20
27940;DHT22;15275;51.716;14.324;2023-05-10T00:17:30;13.90;65.30
27940;DHT22;15275;51.716;14.324;2023-05-10T00:19:56;13.90;65.40
27940;DHT22;15275;51.716;14.324;2023-05-10T00:22:22;13.80;65.40
27940;DHT22;15275;51.716;14.324;2023-05-10T00:24:48;13.80;65.40
27940;DHT22;15275;51.716;14.324;2023-05-10T00:27:14;13.80;65.50
27940;DHT22;15275;51.716;14.324;2023-05-10T00:29:40;13.70;65.50
27940;DHT22;15275;51.716;14.324;2023-05-10T00:32:06;13.70;65.50
27940;DHT22;15275;51.716;14.324;2023-05-10T00:34:32;13.60;65.60
27940;DHT22;15275;51.716;14.324;2023-05-10T00:36:58;13.60;65.80
27940;DHT22;15275;51.716;14.324;2023-05-10T00:39:24;13.60;65.80
27940;DHT22;15275;51.716;14.324;2023-05-10T00:41:51;13.50;65.90
27940;DHT22;15275;51.716;14.324;2023-05-10T00:44:17;13.50;65.90
27940;DHT22;15275;51.716;14.324;2023-05-10T00:46:44;13.40;66.00
27940;DHT22;15275;51.716;14.324;2023-05-10T00:49:11;13.40;66.00
27940;DHT22;15275;51.716;14.324;2023-05-10T00:51:37;13.40;66.10
27940;DHT22;15275;51.716;14.324;2023-05-10T00:54:03;13.30;66.30
27940;DHT22;15275;51.716;14.324;2023-05-10T00:56:29;13.30;66.40
27940;DHT22;15275;51.716;14.324;2023-05-10T00:58:55;13.20;66.50
27940;DHT22;15275;51.716;14.324;2023-05-10T01:01:21;13.20;66.50
27940;DHT22;15275;51.716;14.324;2023-05-10T01:03:48;13.20;66.60
27940;DHT22;15275;51.716;14.324;2023-05-10T01:06:14;13.10;66.80
27940;DHT22;15275;51.716;14.324;2023-05-10T01:08:40;13.10;66.80
27940;DHT22;15275;51.716;14.324;2023-05-10T01:11:06;13.10;66.90
27940;DHT22;15275;51.716;14.324;2023-05-10T01:13:38;13.00;66.90
27940;DHT22;15275;51.716;14.324;2023-05-10T01:16:06;13.00;67.00
27940;DHT22;15275;51.716;14.324;2023-05-10T01:18:40;13.00;67.00
27940;DHT22;15275;51.716;14.324;2023-05-10T01:21:38;13.00;67.10
27940;DHT22;15275;51.716;14.324;2023-05-10T01:38:51;12.70;67.90
27940;DHT22;15275;51.716;14.324;2023-05-10T01:41:39;12.70;67.90
27940;DHT22;15275;51.716;14.324;2023-05-10T01:44:21;12.60;68.00
27940;DHT22;15275;51.716;14.324;2023-05-10T01:47:10;12.60;68.20
27940;DHT22;15275;51.716;14.324;2023-05-10T01:49:45;12.60;68.00
27940;DHT22;15275;51.716;14.324;2023-05-10T01:52:18;12.60;68.30
27940;DHT22;15275;51.716;14.324;2023-05-10T01:54:53;12.50;68.40
27940;DHT22;15275;51.716;14.324;2023-05-10T01:57:22;12.50;68.50
27940;DHT22;15275;51.716;14.324;2023-05-10T01:59:52;12.50;68.60
27940;DHT22;15275;51.716;14.324;2023-05-10T02:02:21;12.50;68.60
27940;DHT22;15275;51.716;14.324;2023-05-10T02:04:48;12.50;68.70
27940;DHT22;15275;51.716;14.324;2023-05-10T02:07:15;12.40;68.70
27940;DHT22;15275;51.716;14.324;2023-05-10T02:09:44;12.40;68.80
27940;DHT22;15275;51.716;14.324;2023-05-10T02:12:14;12.40;69.00
27940;DHT22;15275;51.716;14.324;2023-05-10T02:14:41;12.40;69.00
27940;DHT22;15275;51.716;14.324;2023-05-10T02:17:09;12.40;69.00
27940;DHT22;15275;51.716;14.324;2023-05-10T02:19:38;12.40;69.10
27940;DHT22;15275;51.716;14.324;2023-05-10T02:22:05;12.40;69.20
27940;DHT22;15275;51.716;14.324;2023-05-10T02:24:32;12.30;69.20
27940;DHT22;15275;51.716;14.324;2023-05-10T02:27:00;12.30;69.20
27940;DHT22;15275;51.716;14.324;2023-05-10T02:29:27;12.30;69.20
27940;DHT22;15275;51.716;14.324;2023-05-10T02:31:54;12.30;69.20
27940;DHT22;15275;51.716;14.324;2023-05-10T02:34:26;12.30;69.30
27940;DHT22;15275;51.716;14.324;2023-05-10T02:36:53;12.20;69.30
27940;DHT22;15275;51.716;14.324;2023-05-10T02:39:21;12.20;69.40
27940;DHT22;15275;51.716;14.324;2023-05-10T02:41:49;12.20;69.40
27940;DHT22;15275;51.716;14.324;2023-05-10T02:44:18;12.20;69.40
27940;DHT22;15275;51.716;14.324;2023-05-10T02:46:45;12.20;69.50
27940;DHT22;15275;51.716;14.324;2023-05-10T02:49:12;12.10;69.50
27940;DHT22;15275;51.716;14.324;2023-05-10T02:51:41;12.10;69.50
27940;DHT22;15275;51.716;14.324;2023-05-10T02:54:19;12.10;69.60
27940;DHT22;15275;51.716;14.324;2023-05-10T02:56:57;12.10;69.60
27940;DHT22;15275;51.716;14.324;2023-05-10T02:59:24;12.10;69.50
27940;DHT22;15275;51.716;14.324;2023-05-10T03:01:50;12.00;69.60
27940;DHT22;15275;51.716;14.324;2023-05-10T03:04:16;12.00;69.70
27940;DHT22;15275;51.716;14.324;2023-05-10T03:06:42;12.00;69.70
27940;DHT22;15275;51.716;14.324;2023-05-10T03:09:08;12.00;69.70
27940;DHT22;15275;51.716;14.324;2023-05-10T03:12:00;11.90;69.90
27940;DHT22;15275;51.716;14.324;2023-05-10T03:20:41;11.90;70.00
27940;DHT22;15275;51.716;14.324;2023-05-10T03:23:24;11.80;69.60
27940;DHT22;15275;51.716;14.324;2023-05-10T03:25:52;11.80;70.10
27940;DHT22;15275;51.716;14.324;2023-05-10T03:28:21;11.80;69.30
27940;DHT22;15275;51.716;14.324;2023-05-10T03:30:47;11.80;70.20
27940;DHT22;15275;51.716;14.324;2023-05-10T03:33:13;11.70;70.20
27940;DHT22;15275;51.716;14.324;2023-05-10T03:35:39;11.70;70.40
27940;DHT22;15275;51.716;14.324;2023-05-10T03:38:05;11.70;70.40
27940;DHT22;15275;51.716;14.324;2023-05-10T03:40:31;11.70;70.50
27940;DHT22;15275;51.716;14.324;2023-05-10T03:43:00;11.60;70.50
27940;DHT22;15275;51.716;14.324;2023-05-10T03:45:26;11.70;70.60
27940;DHT22;15275;51.716;14.324;2023-05-10T03:47:52;11.70;70.60
27940;DHT22;15275;51.716;14.324;2023-05-10T03:50:19;11.60;70.70
27940;DHT22;15275;51.716;14.324;2023-05-10T03:52:45;11.70;70.80
27940;DHT22;15275;51.716;14.324;2023-05-10T03:55:11;11.70;70.90
27940;DHT22;15275;51.716;14.324;2023-05-10T03:57:37;11.70;70.90
27940;DHT22;15275;51.716;14.324;2023-05-10T04:00:04;11.70;70.90
27940;DHT22;15275;51.716;14.324;2023-05-10T04:02:30;11.70;71.00
27940;DHT22;15275;51.716;14.324;2023-05-10T04:04:56;11.80;71.00
27940;DHT22;15275;51.716;14.324;2023-05-10T04:07:22;11.80;71.00
27940;DHT22;15275;51.716;14.324;2023-05-10T04:09:48;11.80;71.10
27940;DHT22;15275;51.716;14.324;2023-05-10T04:12:14;11.90;71.20
27940;DHT22;15275;51.716;14.324;2023-05-10T04:14:40;11.90;71.00
27940;DHT22;15275;51.716;14.324;2023-05-10T04:17:06;12.00;70.90
27940;DHT22;15275;51.716;14.324;2023-05-10T04:19:32;12.00;71.00
27940;DHT22;15275;51.716;14.324;2023-05-10T04:21:58;12.10;70.90
27940;DHT22;15275;51.716;14.324;2023-05-10T04:24:24;12.10;70.90
27940;DHT22;15275;51.716;14.324;2023-05-10T04:26:51;12.20;70.90
27940;DHT22;15275;51.716;14.324;2023-05-10T04:29:16;12.20;70.90
27940;DHT22;15275;51.716;14.324;2023-05-10T04:31:42;12.30;70.90
27940;DHT22;15275;51.716;14.324;2023-05-10T04:34:08;12.30;70.80
27940;DHT22;15275;51.716;14.324;2023-05-10T04:36:34;12.40;70.80
27940;DHT22;15275;51.716;14.324;2023-05-10T04:39:02;12.50;70.70
27940;DHT22;15275;51.716;14.324;2023-05-10T04:41:29;12.50;70.60
27940;DHT22;15275;51.716;14.324;2023-05-10T04:43:55;12.60;70.60
27940;DHT22;15275;51.716;14.324;2023-05-10T04:46:21;12.70;70.60
27940;DHT22;15275;51.716;14.324;2023-05-10T04:48:47;12.70;70.50
27940;DHT22;15275;51.716;14.324;2023-05-10T04:51:13;12.80;70.60
27940;DHT22;15275;51.716;14.324;2023-05-10T04:53:38;12.90;70.40
27940;DHT22;15275;51.716;14.324;2023-05-10T04:56:05;12.90;70.50
27940;DHT22;15275;51.716;14.324;2023-05-10T04:58:31;13.00;70.50
27940;DHT22;15275;51.716;14.324;2023-05-10T05:00:57;13.10;70.40
27940;DHT22;15275;51.716;14.324;2023-05-10T05:03:22;13.20;70.30
27940;DHT22;15275;51.716;14.324;2023-05-10T05:05:48;13.30;70.50
27940;DHT22;15275;51.716;14.324;2023-05-10T05:08:14;13.40;70.60
27940;DHT22;15275;51.716;14.324;2023-05-10T05:10:40;13.60;70.80
27940;DHT22;15275;51.716;14.324;2023-05-10T05:13:06;13.80;70.90
27940;DHT22;15275;51.716;14.324;2023-05-10T05:15:32;14.00;71.40
27940;DHT22;15275;51.716;14.324;2023-05-10T05:17:57;14.40;71.40
27940;DHT22;15275;51.716;14.324;2023-05-10T05:20:23;14.70;71.00
27940;DHT22;15275;51.716;14.324;2023-05-10T05:22:49;15.00;70.40
27940;DHT22;15275;51.716;14.324;2023-05-10T05:25:15;15.30;70.10
27940;DHT22;15275;51.716;14.324;2023-05-10T05:27:41;15.60;69.80
27940;DHT22;15275;51.716;14.324;2023-05-10T05:30:08;16.00;69.40
27940;DHT22;15275;51.716;14.324;2023-05-10T05:32:34;16.30;69.00
27940;DHT22;15275;51.716;14.324;2023-05-10T05:35:00;16.60;68.70
27940;DHT22;15275;51.716;14.324;2023-05-10T05:37:25;16.90;67.60
27940;DHT22;15275;51.716;14.324;2023-05-10T05:39:51;17.20;66.90
27940;DHT22;15275;51.716;14.324;2023-05-10T05:42:17;17.50;66.40
27940;DHT22;15275;51.716;14.324;2023-05-10T05:44:44;17.70;66.20
27940;DHT22;15275;51.716;14.324;2023-05-10T05:47:10;17.90;65.30
27940;DHT22;15275;51.716;14.324;2023-05-10T05:49:36;18.00;64.80
27940;DHT22;15275;51.716;14.324;2023-05-10T05:52:03;18.10;64.80
27940;DHT22;15275;51.716;14.324;2023-05-10T05:54:30;18.30;64.50
27940;DHT22;15275;51.716;14.324;2023-05-10T05:56:58;18.50;64.50
27940;DHT22;15275;51.716;14.324;2023-05-10T05:59:24;18.70;64.10
27940;DHT22;15275;51.716;14.324;2023-05-10T06:01:50;19.00;64.10
27940;DHT22;15275;51.716;14.324;2023-05-10T06:04:16;19.20;63.70
27940;DHT22;15275;51.716;14.324;2023-05-10T06:06:43;19.40;63.40
27940;DHT22;15275;51.716;14.324;2023-05-10T06:09:09;19.50;62.80
27940;DHT22;15275;51.716;14.324;2023-05-10T06:11:35;19.60;62.30
27940;DHT22;15275;51.716;14.324;2023-05-10T06:14:02;19.70;62.30
27940;DHT22;15275;51.716;14.324;2023-05-10T06:16:34;19.80;62.00
27940;DHT22;15275;51.716;14.324;2023-05-10T06:19:00;19.90;62.10
27940;DHT22;15275;51.716;14.324;2023-05-10T06:21:25;19.90;62.00
27940;DHT22;15275;51.716;14.324;2023-05-10T06:23:51;20.00;61.00
27940;DHT22;15275;51.716;14.324;2023-05-10T06:26:17;20.00;60.50
27940;DHT22;15275;51.716;14.324;2023-05-10T06:28:43;20.00;60.60
27940;DHT22;15275;51.716;14.324;2023-05-10T06:31:09;19.90;60.60
27940;DHT22;15275;51.716;14.324;2023-05-10T06:33:36;19.90;60.50
27940;DHT22;15275;51.716;14.324;2023-05-10T06:36:02;19.90;60.50
27940;DHT22;15275;51.716;14.324;2023-05-10T06:38:28;19.80;60.60
27940;DHT22;15275;51.716;14.324;2023-05-10T06:40:54;19.80;60.70
27940;DHT22;15275;51.716;14.324;2023-05-10T06:43:20;19.80;61.10
27940;DHT22;15275;51.716;14.324;2023-05-10T06:45:47;19.80;61.20
27940;DHT22;15275;51.716;14.324;2023-05-10T06:48:13;19.80;61.10
27940;DHT22;15275;51.716;14.324;2023-05-10T06:50:39;19.80;60.90
27940;DHT22;15275;51.716;14.324;2023-05-10T06:53:05;19.80;60.10
27940;DHT22;15275;51.716;14.324;2023-05-10T06:55:30;19.80;60.80
27940;DHT22;15275;51.716;14.324;2023-05-10T06:57:56;19.80;60.70
27940;DHT22;15275;51.716;14.324;2023-05-10T07:00:22;19.80;60.90
27940;DHT22;15275;51.716;14.324;2023-05-10T07:02:48;19.80;61.10
27940;DHT22;15275;51.716;14.324;2023-05-10T07:05:14;19.80;61.00
27940;DHT22;15275;51.716;14.324;2023-05-10T07:07:40;19.80;60.80
27940;DHT22;15275;51.716;14.324;2023-05-10T07:10:07;19.80;60.70
27940;DHT22;15275;51.716;14.324;2023-05-10T07:12:34;19.80;60.20
27940;DHT22;15275;51.716;14.324;2023-05-10T07:14:59;19.90;60.70
27940;DHT22;15275;51.716;14.324;2023-05-10T07:17:25;19.90;60.70
27940;DHT22;15275;51.716;14.324;2023-05-10T07:19:51;19.90;60.90
27940;DHT22;15275;51.716;14.324;2023-05-10T07:22:17;20.00;60.90
27940;DHT22;15275;51.716;14.324;2023-05-10T07:24:43;20.00;60.90
27940;DHT22;15275;51.716;14.324;2023-05-10T07:27:09;20.10;60.90
27940;DHT22;15275;51.716;14.324;2023-05-10T07:29:35;20.20;61.30
27940;DHT22;15275;51.716;14.324;2023-05-10T07:32:02;20.20;61.10
27940;DHT22;15275;51.716;14.324;2023-05-10T07:34:28;20.30;61.10
27940;DHT22;15275;51.716;14.324;2023-05-10T07:36:57;20.50;60.70
27940;DHT22;15275;51.716;14.324;2023-05-10T07:39:23;20.60;60.70
27940;DHT22;15275;51.716;14.324;2023-05-10T07:41:49;20.60;60.80
27940;DHT22;15275;51.716;14.324;2023-05-10T07:44:15;20.70;60.80
27940;DHT22;15275;51.716;14.324;2023-05-10T07:46:43;20.80;60.50
27940;DHT22;15275;51.716;14.324;2023-05-10T07:49:09;20.80;60.40
27940;DHT22;15275;51.716;14.324;2023-05-10T07:51:35;20.90;60.10
27940;DHT22;15275;51.716;14.324;2023-05-10T07:54:01;21.00;60.10
27940;DHT22;15275;51.716;14.324;2023-05-10T07:56:31;21.00;59.90
27940;DHT22;15275;51.716;14.324;2023-05-10T07:59:02;21.10;59.70
27940;DHT22;15275;51.716;14.324;2023-05-10T08:01:33;21.20;58.90
27940;DHT22;15275;51.716;14.324;2023-05-10T08:04:00;21.20;58.20
27940;DHT22;15275;51.716;14.324;2023-05-10T08:06:27;21.30;58.70
27940;DHT22;15275;51.716;14.324;2023-05-10T08:08:55;21.30;58.60
27940;DHT22;15275;51.716;14.324;2023-05-10T08:11:21;21.30;58.80
27940;DHT22;15275;51.716;14.324;2023-05-10T08:13:48;21.40;58.70
27940;DHT22;15275;51.716;14.324;2023-05-10T08:16:15;21.40;59.10
27940;DHT22;15275;51.716;14.324;2023-05-10T08:18:43;21.50;58.90
27940;DHT22;15275;51.716;14.324;2023-05-10T08:21:10;21.60;59.00
27940;DHT22;15275;51.716;14.324;2023-05-10T08:23:39;21.60;58.10
27940;DHT22;15275;51.716;14.324;2023-05-10T08:26:06;21.70;58.90
27940;DHT22;15275;51.716;14.324;2023-05-10T08:28:32;21.80;59.20
27940;DHT22;15275;51.716;14.324;2023-05-10T08:30:57;21.90;58.60
27940;DHT22;15275;51.716;14.324;2023-05-10T08:33:23;22.00;58.70
27940;DHT22;15275;51.716;14.324;2023-05-10T08:35:49;22.10;58.50
27940;DHT22;15275;51.716;14.324;2023-05-10T08:38:15;22.20;58.30
27940;DHT22;15275;51.716;14.324;2023-05-10T08:40:42;22.20;58.00
27940;DHT22;15275;51.716;14.324;2023-05-10T08:43:11;22.30;57.30
27940;DHT22;15275;51.716;14.324;2023-05-10T08:45:42;22.40;57.50
27940;DHT22;15275;51.716;14.324;2023-05-10T08:48:09;22.40;57.00
27940;DHT22;15275;51.716;14.324;2023-05-10T08:50:37;22.50;57.70
27940;DHT22;15275;51.716;14.324;2023-05-10T08:53:07;22.50;56.80
27940;DHT22;15275;51.716;14.324;2023-05-10T08:55:36;22.60;56.40
27940;DHT22;15275;51.716;14.324;2023-05-10T08:58:04;22.60;56.50
27940;DHT22;15275;51.716;14.324;2023-05-10T09:00:31;22.60;55.90
27940;DHT22;15275;51.716;14.324;2023-05-10T09:02:58;22.60;56.30
27940;DHT22;15275;51.716;14.324;2023-05-10T09:05:24;22.60;56.00
27940;DHT22;15275;51.716;14.324;2023-05-10T09:07:50;22.60;56.10
27940;DHT22;15275;51.716;14.324;2023-05-10T09:10:16;22.70;56.00
27940;DHT22;15275;51.716;14.324;2023-05-10T09:12:44;22.70;56.30
27940;DHT22;15275;51.716;14.324;2023-05-10T09:15:11;22.70;55.80
27940;DHT22;15275;51.716;14.324;2023-05-10T09:17:40;22.80;55.80
27940;DHT22;15275;51.716;14.324;2023-05-10T09:20:07;22.90;55.80
27940;DHT22;15275;51.716;14.324;2023-05-10T09:22:36;22.90;55.40
27940;DHT22;15275;51.716;14.324;2023-05-10T09:25:07;23.00;54.80
27940;DHT22;15275;51.716;14.324;2023-05-10T09:27:35;23.00;55.20
27940;DHT22;15275;51.716;14.324;2023-05-10T09:30:02;23.00;56.10
27940;DHT22;15275;51.716;14.324;2023-05-10T09:32:47;23.10;56.00
27940;DHT22;15275;51.716;14.324;2023-05-10T09:35:15;23.20;54.10
27940;DHT22;15275;51.716;14.324;2023-05-10T09:37:47;23.30;55.50
27940;DHT22;15275;51.716;14.324;2023-05-10T09:40:22;23.30;55.40
27940;DHT22;15275;51.716;14.324;2023-05-10T09:43:00;23.40;55.40
27940;DHT22;15275;51.716;14.324;2023-05-10T09:45:29;23.50;54.60
27940;DHT22;15275;51.716;14.324;2023-05-10T09:47:56;23.60;56.20
27940;DHT22;15275;51.716;14.324;2023-05-10T09:50:23;23.60;56.40
27940;DHT22;15275;51.716;14.324;2023-05-10T09:52:52;23.70;55.80
27940;DHT22;15275;51.716;14.324;2023-05-10T09:55:37;23.80;54.80
27940;DHT22;15275;51.716;14.324;2023-05-10T09:58:09;23.90;54.60
27940;DHT22;15275;51.716;14.324;2023-05-10T10:00:40;23.90;55.20
27940;DHT22;15275;51.716;14.324;2023-05-10T10:03:15;24.00;53.80
27940;DHT22;15275;51.716;14.324;2023-05-10T10:05:43;24.10;53.50
27940;DHT22;15275;51.716;14.324;2023-05-10T10:08:10;24.10;55.20
27940;DHT22;15275;51.716;14.324;2023-05-10T10:10:37;24.10;54.20
27940;DHT22;15275;51.716;14.324;2023-05-10T10:13:05;24.20;54.20
27940;DHT22;15275;51.716;14.324;2023-05-10T10:15:33;24.20;54.60
27940;DHT22;15275;51.716;14.324;2023-05-10T10:18:00;24.20;54.30
27940;DHT22;15275;51.716;14.324;2023-05-10T10:20:27;24.30;53.50
27940;DHT22;15275;51.716;14.324;2023-05-10T10:22:53;24.30;53.70
27940;DHT22;15275;51.716;14.324;2023-05-10T10:25:20;24.30;53.20
27940;DHT22;15275;51.716;14.324;2023-05-10T10:30:39;24.40;53.20
27940;DHT22;15275;51.716;14.324;2023-05-10T10:33:33;24.40;53.90
27940;DHT22;15275;51.716;14.324;2023-05-10T10:36:05;24.50;52.80
27940;DHT22;15275;51.716;14.324;2023-05-10T10:41:34;24.70;51.50
27940;DHT22;15275;51.716;14.324;2023-05-10T10:49:50;24.80;51.40
27940;DHT22;15275;51.716;14.324;2023-05-10T10:52:25;24.80;52.80
27940;DHT22;15275;51.716;14.324;2023-05-10T10:55:21;24.80;51.80
27940;DHT22;15275;51.716;14.324;2023-05-10T10:57:52;24.90;53.20
27940;DHT22;15275;51.716;14.324;2023-05-10T11:00:30;24.90;53.50
27940;DHT22;15275;51.716;14.324;2023-05-10T11:02:58;24.90;52.40
27940;DHT22;15275;51.716;14.324;2023-05-10T11:05:38;24.90;51.80
27940;DHT22;15275;51.716;14.324;2023-05-10T11:08:31;24.90;50.90
27940;DHT22;15275;51.716;14.324;2023-05-10T11:13:32;25.00;51.70
27940;DHT22;15275;51.716;14.324;2023-05-10T11:16:15;25.00;52.20
27940;DHT22;15275;51.716;14.324;2023-05-10T11:21:31;25.10;49.60
27940;DHT22;15275;51.716;14.324;2023-05-10T11:23:59;25.10;52.00
27940;DHT22;15275;51.716;14.324;2023-05-10T11:26:35;25.10;51.40
27940;DHT22;15275;51.716;14.324;2023-05-10T11:29:01;25.20;50.30
27940;DHT22;15275;51.716;14.324;2023-05-10T11:31:29;25.20;51.90
27940;DHT22;15275;51.716;14.324;2023-05-10T11:33:58;25.20;52.30
27940;DHT22;15275;51.716;14.324;2023-05-10T11:36:33;25.30;51.60
27940;DHT22;15275;51.716;14.324;2023-05-10T11:39:01;25.40;50.10
27940;DHT22;15275;51.716;14.324;2023-05-10T11:41:29;25.40;51.00
27940;DHT22;15275;51.716;14.324;2023-05-10T11:43:56;25.40;51.40
27940;DHT22;15275;51.716;14.324;2023-05-10T11:46:27;25.50;50.40
27940;DHT22;15275;51.716;14.324;2023-05-10T11:48:58;25.50;50.10
27940;DHT22;15275;51.716;14.324;2023-05-10T11:51:26;25.60;51.10
27940;DHT22;15275;51.716;14.324;2023-05-10T11:53:54;25.60;51.90
27940;DHT22;15275;51.716;14.324;2023-05-10T11:56:20;25.70;51.50
27940;DHT22;15275;51.716;14.324;2023-05-10T11:58:56;25.80;51.40
27940;DHT22;15275;51.716;14.324;2023-05-10T12:01:26;25.90;49.80
27940;DHT22;15275;51.716;14.324;2023-05-10T12:03:55;25.90;50.40
27940;DHT22;15275;51.716;14.324;2023-05-10T12:06:39;26.00;50.40
27940;DHT22;15275;51.716;14.324;2023-05-10T12:09:07;26.00;48.10
27940;DHT22;15275;51.716;14.324;2023-05-10T12:11:37;26.10;50.30
27940;DHT22;15275;51.716;14.324;2023-05-10T12:14:05;26.10;49.60
27940;DHT22;15275;51.716;14.324;2023-05-10T12:16:31;26.10;49.80
27940;DHT22;15275;51.716;14.324;2023-05-10T12:18:58;26.10;50.30
27940;DHT22;15275;51.716;14.324;2023-05-10T12:21:27;26.20;49.60
27940;DHT22;15275;51.716;14.324;2023-05-10T12:23:59;26.20;50.10
27940;DHT22;15275;51.716;14.324;2023-05-10T12:26:28;26.30;49.80
27940;DHT22;15275;51.716;14.324;2023-05-10T12:28:55;26.30;49.80
27940;DHT22;15275;51.716;14.324;2023-05-10T12:34:32;26.40;47.30
27940;DHT22;15275;51.716;14.324;2023-05-10T12:36:59;26.50;48.70
27940;DHT22;15275;51.716;14.324;2023-05-10T12:39:26;26.50;50.10
27940;DHT22;15275;51.716;14.324;2023-05-10T12:41:52;26.50;49.50
27940;DHT22;15275;51.716;14.324;2023-05-10T12:44:18;26.50;50.10
27940;DHT22;15275;51.716;14.324;2023-05-10T12:46:44;26.50;49.10
27940;DHT22;15275;51.716;14.324;2023-05-10T12:49:10;26.50;50.00
27940;DHT22;15275;51.716;14.324;2023-05-10T12:51:36;26.60;50.10
27940;DHT22;15275;51.716;14.324;2023-05-10T12:54:02;26.60;49.60
27940;DHT22;15275;51.716;14.324;2023-05-10T12:56:29;26.70;49.30
27940;DHT22;15275;51.716;14.324;2023-05-10T12:58:54;26.80;48.70
27940;DHT22;15275;51.716;14.324;2023-05-10T13:01:20;26.80;48.80
27940;DHT22;15275;51.716;14.324;2023-05-10T13:03:46;26.90;48.50
27940;DHT22;15275;51.716;14.324;2023-05-10T13:06:13;26.90;48.60
27940;DHT22;15275;51.716;14.324;2023-05-10T13:08:39;26.90;48.50
27940;DHT22;15275;51.716;14.324;2023-05-10T13:11:05;26.90;48.50
27940;DHT22;15275;51.716;14.324;2023-05-10T13:13:31;27.00;48.90
27940;DHT22;15275;51.716;14.324;2023-05-10T13:15:57;27.00;48.50
27940;DHT22;15275;51.716;14.324;2023-05-10T13:18:23;27.00;48.70
27940;DHT22;15275;51.716;14.324;2023-05-10T13:20:49;27.00;48.70
27940;DHT22;15275;51.716;14.324;2023-05-10T13:23:15;27.00;48.20
27940;DHT22;15275;51.716;14.324;2023-05-10T13:25:41;27.10;48.30
27940;DHT22;15275;51.716;14.324;2023-05-10T13:28:07;27.10;48.50
27940;DHT22;15275;51.716;14.324;2023-05-10T13:30:33;27.10;48.30
27940;DHT22;15275;51.716;14.324;2023-05-10T13:32:58;27.10;48.60
27940;DHT22;15275;51.716;14.324;2023-05-10T13:35:24;27.10;48.10
27940;DHT22;15275;51.716;14.324;2023-05-10T13:37:50;27.20;48.10
27940;DHT22;15275;51.716;14.324;2023-05-10T13:40:16;27.20;47.90
27940;DHT22;15275;51.716;14.324;2023-05-10T13:42:42;27.20;47.70
27940;DHT22;15275;51.716;14.324;2023-05-10T13:45:08;27.20;47.80
27940;DHT22;15275;51.716;14.324;2023-05-10T13:47:35;27.30;48.00
27940;DHT22;15275;51.716;14.324;2023-05-10T13:50:00;27.30;48.70
27940;DHT22;15275;51.716;14.324;2023-05-10T13:52:26;27.30;48.40
27940;DHT22;15275;51.716;14.324;2023-05-10T13:54:52;27.40;48.30
27940;DHT22;15275;51.716;14.324;2023-05-10T13:57:20;27.50;48.20
27940;DHT22;15275;51.716;14.324;2023-05-10T13:59:47;27.50;47.90
27940;DHT22;15275;51.716;14.324;2023-05-10T14:02:13;27.50;48.20
27940;DHT22;15275;51.716;14.324;2023-05-10T14:04:39;27.60;48.50
27940;DHT22;15275;51.716;14.324;2023-05-10T14:07:05;27.60;48.20
27940;DHT22;15275;51.716;14.324;2023-05-10T14:09:31;27.70;47.80
27940;DHT22;15275;51.716;14.324;2023-05-10T14:11:56;27.70;47.90
27940;DHT22;15275;51.716;14.324;2023-05-10T14:14:23;27.80;47.00
27940;DHT22;15275;51.716;14.324;2023-05-10T14:16:48;27.80;46.60
27940;DHT22;15275;51.716;14.324;2023-05-10T14:19:14;27.80;47.50
27940;DHT22;15275;51.716;14.324;2023-05-10T14:21:40;27.80;46.90
27940;DHT22;15275;51.716;14.324;2023-05-10T14:24:06;27.70;46.90
27940;DHT22;15275;51.716;14.324;2023-05-10T14:26:32;27.70;46.70
27940;DHT22;15275;51.716;14.324;2023-05-10T14:29:00;27.80;47.00
27940;DHT22;15275;51.716;14.324;2023-05-10T14:31:25;27.80;46.80
27940;DHT22;15275;51.716;14.324;2023-05-10T14:33:51;27.80;47.10
27940;DHT22;15275;51.716;14.324;2023-05-10T14:36:18;27.80;47.00
27940;DHT22;15275;51.716;14.324;2023-05-10T14:38:43;27.80;46.80
27940;DHT22;15275;51.716;14.324;2023-05-10T14:41:09;27.90;46.50
27940;DHT22;15275;51.716;14.324;2023-05-10T14:43:39;27.90;45.90
27940;DHT22;15275;51.716;14.324;2023-05-10T14:46:05;27.80;45.50
27940;DHT22;15275;51.716;14.324;2023-05-10T14:48:31;27.80;45.70
27940;DHT22;15275;51.716;14.324;2023-05-10T14:50:56;27.80;45.90
27940;DHT22;15275;51.716;14.324;2023-05-10T14:53:22;27.70;46.00
27940;DHT22;15275;51.716;14.324;2023-05-10T14:55:48;27.70;46.00
27940;DHT22;15275;51.716;14.324;2023-05-10T14:58:14;27.70;46.10
27940;DHT22;15275;51.716;14.324;2023-05-10T15:00:40;27.60;45.90
27940;DHT22;15275;51.716;14.324;2023-05-10T15:03:06;27.60;45.80
27940;DHT22;15275;51.716;14.324;2023-05-10T15:05:32;27.60;46.20
27940;DHT22;15275;51.716;14.324;2023-05-10T15:07:58;27.60;46.50
27940;DHT22;15275;51.716;14.324;2023-05-10T15:10:24;27.60;46.30
27940;DHT22;15275;51.716;14.324;2023-05-10T15:12:50;27.60;46.70
27940;DHT22;15275;51.716;14.324;2023-05-10T15:15:16;27.60;46.40
27940;DHT22;15275;51.716;14.324;2023-05-10T15:17:42;27.60;46.30
27940;DHT22;15275;51.716;14.324;2023-05-10T15:20:08;27.60;45.90
27940;DHT22;15275;51.716;14.324;2023-05-10T15:22:34;27.60;46.00
27940;DHT22;15275;51.716;14.324;2023-05-10T15:25:00;27.50;45.70
27940;DHT22;15275;51.716;14.324;2023-05-10T15:27:26;27.50;46.00
27940;DHT22;15275;51.716;14.324;2023-05-10T15:29:52;27.40;45.70
27940;DHT22;15275;51.716;14.324;2023-05-10T15:32:18;27.30;45.60
27940;DHT22;15275;51.716;14.324;2023-05-10T15:34:44;27.20;45.70
27940;DHT22;15275;51.716;14.324;2023-05-10T15:37:10;27.10;46.10
27940;DHT22;15275;51.716;14.324;2023-05-10T15:39:36;27.00;46.20
27940;DHT22;15275;51.716;14.324;2023-05-10T15:42:02;27.00;46.50
27940;DHT22;15275;51.716;14.324;2023-05-10T15:44:28;27.00;46.80
27940;DHT22;15275;51.716;14.324;2023-05-10T15:46:54;26.90;46.90
27940;DHT22;15275;51.716;14.324;2023-05-10T15:49:20;26.90;46.60
27940;DHT22;15275;51.716;14.324;2023-05-10T15:51:46;26.90;46.70
27940;DHT22;15275;51.716;14.324;2023-05-10T15:54:11;26.90;46.10
27940;DHT22;15275;51.716;14.324;2023-05-10T15:56:37;26.80;46.10
27940;DHT22;15275;51.716;14.324;2023-05-10T15:59:04;26.80;45.80